createdAt,value
2024-04-30T00:00:51.373Z,95074.00
2024-04-30T00:01:51.369Z,95072.00
2024-04-30T00:02:51.287Z,95074.00
2024-04-30T00:03:51.319Z,95073.00
2024-04-30T00:04:51.402Z,95075.00
2024-04-30T00:05:51.360Z,95075.00
2024-04-30T00:06:51.297Z,95072.00
2024-04-30T00:07:51.374Z,95075.00
2024-04-30T00:08:51.301Z,95071.00
2024-04-30T00:09:51.306Z,95074.00
2024-04-30T00:10:51.386Z,95074.00
2024-04-30T00:11:51.410Z,95073.00
2024-04-30T00:12:51.410Z,95078.00
2024-04-30T00:13:51.339Z,95074.00
2024-04-30T00:14:51.348Z,95075.00
2024-04-30T00:15:51.367Z,95072.00
2024-04-30T00:16:51.405Z,95075.00
2024-04-30T00:17:51.427Z,95075.00
2024-04-30T00:18:51.366Z,95074.00
2024-04-30T00:19:51.545Z,95070.00
2024-04-30T00:20:51.428Z,95070.00
2024-04-30T00:21:51.407Z,95072.00
2024-04-30T00:22:51.401Z,95068.00
2024-04-30T00:23:51.487Z,95068.00
2024-04-30T00:24:51.429Z,95068.00
2024-04-30T00:25:51.413Z,95068.00
2024-04-30T00:26:51.433Z,95072.00
2024-04-30T00:27:51.493Z,95073.00
2024-04-30T00:28:51.460Z,95075.00
2024-04-30T00:29:51.485Z,95075.00
2024-04-30T00:30:51.469Z,95077.00
2024-04-30T00:31:51.501Z,95077.00
2024-04-30T00:32:51.609Z,95077.00
2024-04-30T00:33:51.557Z,95073.00
2024-04-30T00:34:51.547Z,95075.00
2024-04-30T00:35:51.539Z,95075.00
2024-04-30T00:36:51.500Z,95074.00
2024-04-30T00:37:51.554Z,95078.00
2024-04-30T00:38:51.559Z,95079.00
2024-04-30T00:39:51.597Z,95078.00
2024-04-30T00:40:51.680Z,95074.00
2024-04-30T00:41:51.637Z,95073.00
2024-04-30T00:42:51.642Z,95073.00
2024-04-30T00:43:51.656Z,95074.00
2024-04-30T00:44:51.657Z,95071.00
2024-04-30T00:45:51.704Z,95078.00
2024-04-30T00:46:51.710Z,95078.00
2024-04-30T00:47:51.843Z,95080.00
2024-04-30T00:48:51.779Z,95080.00
2024-04-30T00:49:51.733Z,95081.00
2024-04-30T00:50:51.782Z,95080.00
2024-04-30T00:51:51.804Z,95080.00
2024-04-30T00:52:51.770Z,95081.00
2024-04-30T00:53:51.765Z,95081.00
2024-04-30T00:54:51.800Z,95082.00
2024-04-30T00:55:51.831Z,95084.00
2024-04-30T00:56:51.876Z,95082.00
2024-04-30T00:57:51.931Z,95083.00
2024-04-30T00:58:51.900Z,95082.00
2024-04-30T00:59:51.926Z,95081.00
2024-04-30T01:00:51.948Z,95080.00
2024-04-30T01:01:51.908Z,95083.00
2024-04-30T01:02:51.929Z,95083.00
2024-04-30T01:03:51.945Z,95085.00
2024-04-30T01:04:51.950Z,95087.00
2024-04-30T01:05:52.055Z,95088.00
2024-04-30T01:06:52.006Z,95083.00
2024-04-30T01:07:52.053Z,95084.00
2024-04-30T01:08:52.078Z,95081.00
2024-04-30T01:09:52.010Z,95081.00
2024-04-30T01:10:52.035Z,95084.00
2024-04-30T01:11:52.118Z,95082.00
2024-04-30T01:12:52.101Z,95084.00
2024-04-30T01:13:52.064Z,95081.00
2024-04-30T01:14:52.112Z,95083.00
2024-04-30T01:15:52.073Z,95080.00
2024-04-30T01:16:52.137Z,95081.00
2024-04-30T01:17:52.160Z,95081.00
2024-04-30T01:18:52.135Z,95082.00
2024-04-30T01:19:52.147Z,95082.00
2024-04-30T01:20:52.170Z,95083.00
2024-04-30T01:21:52.248Z,95082.00
2024-04-30T01:22:52.221Z,95081.00
2024-04-30T01:23:52.261Z,95081.00
2024-04-30T01:24:52.263Z,95079.00
2024-04-30T01:25:52.336Z,95082.00
2024-04-30T01:26:52.809Z,95081.00
2024-04-30T01:27:52.261Z,95079.00
2024-04-30T01:28:52.285Z,95078.00
2024-04-30T01:29:52.321Z,95078.00
2024-04-30T01:30:52.356Z,95081.00
2024-04-30T01:31:52.364Z,95079.00
2024-04-30T01:32:52.443Z,95080.00
2024-04-30T01:33:52.350Z,95078.00
2024-04-30T01:34:52.351Z,95077.00
2024-04-30T01:35:52.410Z,95078.00
2024-04-30T01:36:52.422Z,95077.00
2024-04-30T01:37:52.481Z,95078.00
2024-04-30T01:38:52.411Z,95078.00
2024-04-30T01:39:52.429Z,95078.00
2024-04-30T01:40:52.455Z,95079.00
2024-04-30T01:41:52.458Z,95077.00
2024-04-30T01:42:52.514Z,95079.00
2024-04-30T01:43:52.543Z,95081.00
2024-04-30T01:44:52.534Z,95080.00
2024-04-30T01:45:52.563Z,95079.00
2024-04-30T01:46:52.539Z,95076.00
2024-04-30T01:47:52.601Z,95077.00
2024-04-30T01:48:52.568Z,95077.00
2024-04-30T01:49:52.566Z,95074.00
2024-04-30T01:50:52.627Z,95072.00
2024-04-30T01:51:52.635Z,95075.00
2024-04-30T01:52:52.640Z,95075.00
2024-04-30T01:53:52.633Z,95077.00
2024-04-30T01:54:52.649Z,95074.00
2024-04-30T01:55:52.773Z,95073.00
2024-04-30T01:56:52.648Z,95069.00
2024-04-30T01:57:52.689Z,95065.00
2024-04-30T01:58:52.790Z,95067.00
2024-04-30T01:59:52.728Z,95067.00
2024-04-30T02:00:52.746Z,95065.00
2024-04-30T02:01:52.780Z,95068.00
2024-04-30T02:02:52.707Z,95069.00
2024-04-30T02:03:52.824Z,95068.00
2024-04-30T02:04:54.027Z,95064.00
2024-04-30T02:05:52.818Z,95063.00
2024-04-30T02:06:52.777Z,95060.00
2024-04-30T02:07:52.853Z,95059.00
2024-04-30T02:08:52.827Z,95059.00
2024-04-30T02:09:52.898Z,95057.00
2024-04-30T02:10:52.888Z,95058.00
2024-04-30T02:11:52.888Z,95056.00
2024-04-30T02:12:52.886Z,95055.00
2024-04-30T02:13:52.941Z,95056.00
2024-04-30T02:14:52.910Z,95056.00
2024-04-30T02:15:52.959Z,95058.00
2024-04-30T02:16:53.007Z,95056.00
2024-04-30T02:17:52.944Z,95058.00
2024-04-30T02:18:53.026Z,95061.00
2024-04-30T02:19:52.966Z,95059.00
2024-04-30T02:20:52.968Z,95060.00
2024-04-30T02:21:53.042Z,95063.00
2024-04-30T02:22:53.005Z,95065.00
2024-04-30T02:23:53.010Z,95063.00
2024-04-30T02:24:52.998Z,95065.00
2024-04-30T02:25:53.012Z,95065.00
2024-04-30T02:26:53.019Z,95064.00
2024-04-30T02:27:53.016Z,95066.00
2024-04-30T02:28:53.031Z,95070.00
2024-04-30T02:29:53.127Z,95068.00
2024-04-30T02:30:53.088Z,95069.00
2024-04-30T02:31:53.078Z,95073.00
2024-04-30T02:32:53.212Z,95073.00
2024-04-30T02:33:53.101Z,95071.00
2024-04-30T02:34:53.140Z,95068.00
2024-04-30T02:35:53.249Z,95068.00
2024-04-30T02:36:53.198Z,95072.00
2024-04-30T02:37:53.195Z,95071.00
2024-04-30T02:38:53.196Z,95068.00
2024-04-30T02:39:53.202Z,95067.00
2024-04-30T02:40:53.338Z,95069.00
2024-04-30T02:41:53.289Z,95067.00
2024-04-30T02:42:53.281Z,95065.00
2024-04-30T02:43:53.298Z,95062.00
2024-04-30T02:44:53.364Z,95059.00
2024-04-30T02:45:53.312Z,95063.00
2024-04-30T02:46:53.372Z,95067.00
2024-04-30T02:47:53.431Z,95066.00
2024-04-30T02:48:53.418Z,95065.00
2024-04-30T02:49:53.442Z,95064.00
2024-04-30T02:50:53.456Z,95059.00
2024-04-30T02:51:53.449Z,95058.00
2024-04-30T02:52:53.515Z,95061.00
2024-04-30T02:53:53.494Z,95062.00
2024-04-30T02:54:53.528Z,95063.00
2024-04-30T02:55:53.528Z,95060.00
2024-04-30T02:56:53.535Z,95056.00
2024-04-30T02:57:53.539Z,95058.00
2024-04-30T02:58:53.598Z,95058.00
2024-04-30T02:59:53.578Z,95061.00
2024-04-30T03:00:53.658Z,95060.00
2024-04-30T03:01:53.690Z,95059.00
2024-04-30T03:02:53.672Z,95062.00
2024-04-30T03:03:53.691Z,95061.00
2024-04-30T03:04:53.700Z,95059.00
2024-04-30T03:05:53.684Z,95054.00
2024-04-30T03:06:53.761Z,95052.00
2024-04-30T03:07:53.764Z,95056.00
2024-04-30T03:08:53.752Z,95058.00
2024-04-30T03:09:53.839Z,95054.00
2024-04-30T03:10:53.847Z,95055.00
2024-04-30T03:11:53.826Z,95055.00
2024-04-30T03:12:53.839Z,95055.00
2024-04-30T03:13:53.882Z,95052.00
2024-04-30T03:14:53.928Z,95051.00
2024-04-30T03:15:53.891Z,95051.00
2024-04-30T03:16:53.902Z,95052.00
2024-04-30T03:17:54.015Z,95051.00
2024-04-30T03:18:54.011Z,95048.00
2024-04-30T03:19:54.004Z,95047.00
2024-04-30T03:20:54.024Z,95050.00
2024-04-30T03:21:54.077Z,95048.00
2024-04-30T03:22:54.089Z,95049.00
2024-04-30T03:23:54.138Z,95050.00
2024-04-30T03:24:54.158Z,95046.00
2024-04-30T03:25:54.162Z,95045.00
2024-04-30T03:26:54.220Z,95050.00
2024-04-30T03:27:54.218Z,95049.00
2024-04-30T03:28:54.335Z,95052.00
2024-04-30T03:29:54.230Z,95048.00
2024-04-30T03:30:54.273Z,95048.00
2024-04-30T03:31:54.329Z,95053.00
2024-04-30T03:32:54.417Z,95055.00
2024-04-30T03:33:54.453Z,95055.00
2024-04-30T03:34:54.416Z,95053.00
2024-04-30T03:35:54.490Z,95053.00
2024-04-30T03:36:54.457Z,95054.00
2024-04-30T03:37:54.531Z,95056.00
2024-04-30T03:38:54.496Z,95058.00
2024-04-30T03:39:54.540Z,95061.00
2024-04-30T03:40:54.614Z,95064.00
2024-04-30T03:41:54.582Z,95064.00
2024-04-30T03:42:54.748Z,95061.00
2024-04-30T03:43:54.684Z,95063.00
2024-04-30T03:44:54.768Z,95064.00
2024-04-30T03:45:54.705Z,95059.00
2024-04-30T03:46:54.818Z,95060.00
2024-04-30T03:47:54.844Z,95059.00
2024-04-30T03:48:54.814Z,95060.00
2024-04-30T03:49:56.453Z,95059.00
2024-04-30T03:50:54.838Z,95060.00
2024-04-30T03:51:54.788Z,95058.00
2024-04-30T03:52:54.895Z,95057.00
2024-04-30T03:53:54.841Z,95059.00
2024-04-30T03:54:54.804Z,95060.00
2024-04-30T03:55:54.853Z,95062.00
2024-04-30T03:56:54.815Z,95062.00
2024-04-30T03:57:54.824Z,95060.00
2024-04-30T03:58:54.828Z,95061.00
2024-04-30T03:59:54.813Z,95064.00
2024-04-30T04:00:54.981Z,95060.00
2024-04-30T04:01:54.821Z,95062.00
2024-04-30T04:02:54.861Z,95061.00
2024-04-30T04:03:54.866Z,95058.00
2024-04-30T04:04:54.886Z,95061.00
2024-04-30T04:05:54.818Z,95061.00
2024-04-30T04:06:54.822Z,95059.00
2024-04-30T04:07:54.840Z,95059.00
2024-04-30T04:08:54.962Z,95059.00
2024-04-30T04:09:54.835Z,95061.00
2024-04-30T04:10:54.852Z,95063.00
2024-04-30T04:11:55.035Z,95061.00
2024-04-30T04:12:54.884Z,95063.00
2024-04-30T04:13:54.837Z,95062.00
2024-04-30T04:14:54.848Z,95066.00
2024-04-30T04:15:54.899Z,95063.00
2024-04-30T04:16:54.825Z,95063.00
2024-04-30T04:17:54.935Z,95062.00
2024-04-30T04:18:54.847Z,95064.00
2024-04-30T04:19:54.858Z,95063.00
2024-04-30T04:21:02.125Z,95064.00
2024-04-30T04:22:02.163Z,95066.00
2024-04-30T04:23:02.125Z,95062.00
2024-04-30T04:24:02.088Z,95059.00
2024-04-30T04:25:02.139Z,95061.00
2024-04-30T04:26:02.089Z,95063.00
2024-04-30T04:27:02.162Z,95063.00
2024-04-30T04:28:02.114Z,95058.00
2024-04-30T04:29:02.134Z,95060.00
2024-04-30T04:30:02.150Z,95060.00
2024-04-30T04:31:09.355Z,95060.00
2024-04-30T04:32:09.334Z,95058.00
2024-04-30T04:33:09.375Z,95059.00
2024-04-30T04:34:09.311Z,95059.00
2024-04-30T04:35:09.314Z,95063.00
2024-04-30T04:36:09.354Z,95064.00
2024-04-30T04:37:09.363Z,95063.00
2024-04-30T04:38:09.320Z,95061.00
2024-04-30T04:39:09.373Z,95062.00
2024-04-30T04:40:09.383Z,95067.00
2024-04-30T04:41:09.417Z,95068.00
2024-04-30T04:42:09.425Z,95068.00
2024-04-30T04:43:09.985Z,95067.00
2024-04-30T04:44:09.457Z,95064.00
2024-04-30T04:45:09.561Z,95068.00
2024-04-30T04:46:09.562Z,95068.00
2024-04-30T04:47:09.668Z,95069.00
2024-04-30T04:48:09.610Z,95067.00
2024-04-30T04:49:09.619Z,95068.00
2024-04-30T04:50:09.680Z,95066.00
2024-04-30T04:51:09.636Z,95070.00
2024-04-30T04:52:09.700Z,95072.00
2024-04-30T04:53:09.709Z,95075.00
2024-04-30T04:54:09.723Z,95075.00
2024-04-30T04:55:09.736Z,95074.00
2024-04-30T04:56:09.734Z,95069.00
2024-04-30T04:57:09.740Z,95069.00
2024-04-30T04:58:09.803Z,95074.00
2024-04-30T04:59:09.851Z,95073.00
2024-04-30T05:00:09.846Z,95072.00
2024-04-30T05:01:12.653Z,95074.00
2024-04-30T05:02:10.010Z,95072.00
2024-04-30T05:03:09.843Z,95071.00
2024-04-30T05:04:09.980Z,95070.00
2024-04-30T05:05:09.835Z,95070.00
2024-04-30T05:06:09.802Z,95070.00
2024-04-30T05:07:09.871Z,95073.00
2024-04-30T05:08:09.900Z,95071.00
2024-04-30T05:09:09.868Z,95068.00
2024-04-30T05:10:09.859Z,95069.00
2024-04-30T05:11:09.838Z,95068.00
2024-04-30T05:12:09.859Z,95069.00
2024-04-30T05:13:09.871Z,95072.00
2024-04-30T05:14:09.847Z,95073.00
2024-04-30T05:15:09.850Z,95075.00
2024-04-30T05:16:09.922Z,95073.00
2024-04-30T05:17:09.934Z,95072.00
2024-04-30T05:18:09.847Z,95070.00
2024-04-30T05:19:09.835Z,95072.00
2024-04-30T05:20:09.846Z,95075.00
2024-04-30T05:21:09.839Z,95076.00
2024-04-30T05:22:09.876Z,95078.00
2024-04-30T05:23:09.856Z,95078.00
2024-04-30T05:24:09.874Z,95072.00
2024-04-30T05:25:09.891Z,95074.00
2024-04-30T05:26:09.855Z,95070.00
2024-04-30T05:27:09.889Z,95072.00
2024-04-30T05:28:09.891Z,95071.00
2024-04-30T05:29:09.857Z,95071.00
2024-04-30T05:30:09.850Z,95066.00
2024-04-30T05:31:09.906Z,95063.00
2024-04-30T05:32:09.873Z,95060.00
2024-04-30T05:33:09.931Z,95058.00
2024-04-30T05:34:09.917Z,95056.00
2024-04-30T05:35:09.866Z,95051.00
2024-04-30T05:36:09.858Z,95052.00
2024-04-30T05:37:09.896Z,95049.00
2024-04-30T05:38:09.859Z,95047.00
2024-04-30T05:39:09.912Z,95046.00
2024-04-30T05:40:09.892Z,95047.00
2024-04-30T05:41:09.912Z,95044.00
2024-04-30T05:42:09.888Z,95043.00
2024-04-30T05:43:09.884Z,95039.00
2024-04-30T05:44:09.867Z,95039.00
2024-04-30T05:45:12.586Z,95036.00
2024-04-30T05:46:09.959Z,95033.00
2024-04-30T05:47:10.936Z,95035.00
2024-04-30T05:48:14.656Z,95033.00
2024-04-30T05:49:10.045Z,95035.00
2024-04-30T05:50:10.092Z,95039.00
2024-04-30T05:51:09.911Z,95033.00
2024-04-30T05:52:10.056Z,95036.00
2024-04-30T05:53:09.880Z,95040.00
2024-04-30T05:54:09.879Z,95040.00
2024-04-30T05:55:10.048Z,95042.00
2024-04-30T05:56:09.934Z,95046.00
2024-04-30T05:57:10.013Z,95045.00
2024-04-30T05:58:10.065Z,95036.00
2024-04-30T05:59:09.889Z,95032.00
2024-04-30T06:00:09.909Z,95029.00
2024-04-30T06:01:10.258Z,95032.00
2024-04-30T06:02:10.310Z,95036.00
2024-04-30T06:03:10.318Z,95040.00
2024-04-30T06:04:09.987Z,95038.00
2024-04-30T06:05:10.189Z,95041.00
2024-04-30T06:06:10.127Z,95044.00
2024-04-30T06:07:10.344Z,95044.00
2024-04-30T06:08:10.182Z,95043.00
2024-04-30T06:09:10.115Z,95041.00
2024-04-30T06:10:10.223Z,95039.00
2024-04-30T06:11:10.257Z,95038.00
2024-04-30T06:12:10.537Z,95038.00
2024-04-30T06:13:10.359Z,95044.00
2024-04-30T06:14:10.344Z,95050.00
2024-04-30T06:15:10.389Z,95049.00
2024-04-30T06:16:10.535Z,95041.00
2024-04-30T06:17:10.679Z,95033.00
2024-04-30T06:18:10.497Z,95033.00
2024-04-30T06:19:10.473Z,95030.00
2024-04-30T06:20:10.593Z,95042.00
2024-04-30T06:21:12.101Z,95050.00
2024-04-30T06:22:10.630Z,95055.00
2024-04-30T06:23:10.600Z,95049.00
2024-04-30T06:24:11.015Z,95039.00
2024-04-30T06:25:10.668Z,95033.00
2024-04-30T06:26:10.685Z,95036.00
2024-04-30T06:27:11.010Z,95040.00
2024-04-30T06:28:10.743Z,95048.00
2024-04-30T06:29:10.737Z,95043.00
2024-04-30T06:30:10.758Z,95038.00
2024-04-30T06:31:10.931Z,95036.00
2024-04-30T06:32:10.926Z,95039.00
2024-04-30T06:33:13.580Z,95042.00
2024-04-30T06:34:10.902Z,95041.00
2024-04-30T06:35:10.813Z,95035.00
2024-04-30T06:36:10.790Z,95031.00
2024-04-30T06:37:10.828Z,95031.00
2024-04-30T06:38:10.794Z,95034.00
2024-04-30T06:39:10.772Z,95038.00
2024-04-30T06:40:10.895Z,95035.00
2024-04-30T06:41:10.795Z,95029.00
2024-04-30T06:42:10.830Z,95030.00
2024-04-30T06:43:10.841Z,95022.00
2024-04-30T06:44:10.779Z,95023.00
2024-04-30T06:45:11.083Z,95024.00
2024-04-30T06:46:17.711Z,95026.00
2024-04-30T06:47:11.019Z,95027.00
2024-04-30T06:48:11.213Z,95028.00
2024-04-30T06:49:11.120Z,95024.00
2024-04-30T06:50:10.862Z,95021.00
2024-04-30T06:51:10.802Z,95015.00
2024-04-30T06:52:11.257Z,95013.00
2024-04-30T06:53:11.053Z,95017.00
2024-04-30T06:54:10.824Z,95016.00
2024-04-30T06:55:11.128Z,95014.00
2024-04-30T06:56:10.954Z,95006.00
2024-04-30T06:57:11.013Z,95004.00
2024-04-30T06:58:10.874Z,95001.00
2024-04-30T06:59:10.845Z,94996.00
2024-04-30T07:00:10.872Z,94998.00
2024-04-30T07:01:10.836Z,95001.00
2024-04-30T07:02:10.822Z,95000.00
2024-04-30T07:03:10.923Z,95004.00
2024-04-30T07:04:10.904Z,95004.00
2024-04-30T07:05:10.956Z,94999.00
2024-04-30T07:06:10.852Z,94997.00
2024-04-30T07:07:10.852Z,94996.00
2024-04-30T07:08:10.857Z,94990.00
2024-04-30T07:09:10.830Z,94986.00
2024-04-30T07:10:10.929Z,94988.00
2024-04-30T07:11:11.057Z,94995.00
2024-04-30T07:12:11.280Z,94990.00
2024-04-30T07:13:11.120Z,94987.00
2024-04-30T07:14:11.149Z,94979.00
2024-04-30T07:15:11.380Z,94968.00
2024-04-30T07:16:11.487Z,94958.00
2024-04-30T07:17:11.525Z,94961.00
2024-04-30T07:18:11.596Z,94965.00
2024-04-30T07:19:11.589Z,94970.00
2024-04-30T07:20:11.612Z,94968.00
2024-04-30T07:21:11.628Z,94969.00
2024-04-30T07:22:11.796Z,94972.00
2024-04-30T07:23:11.788Z,94967.00
2024-04-30T07:24:12.051Z,94972.00
2024-04-30T07:25:12.043Z,94972.00
2024-04-30T07:26:13.321Z,94964.00
2024-04-30T07:27:11.997Z,94955.00
2024-04-30T07:28:12.053Z,94933.00
2024-04-30T07:29:12.047Z,94942.00
2024-04-30T07:30:12.204Z,94951.00
2024-04-30T07:31:12.016Z,94961.00
2024-04-30T07:32:11.966Z,94949.00
2024-04-30T07:33:12.049Z,94935.00
2024-04-30T07:34:12.003Z,94936.00
2024-04-30T07:35:12.157Z,94942.00
2024-04-30T07:36:12.024Z,94941.00
2024-04-30T07:37:11.981Z,94946.00
2024-04-30T07:38:12.560Z,94934.00
2024-04-30T07:39:11.996Z,94936.00
2024-04-30T07:40:12.661Z,94927.00
2024-04-30T07:41:11.995Z,94928.00
2024-04-30T07:42:11.974Z,94935.00
2024-04-30T07:43:18.595Z,94941.00
2024-04-30T07:44:12.071Z,94939.00
2024-04-30T07:45:12.285Z,94942.00
2024-04-30T07:46:12.532Z,94936.00
2024-04-30T07:47:12.369Z,94938.00
2024-04-30T07:48:12.081Z,94932.00
2024-04-30T07:49:12.238Z,94937.00
2024-04-30T07:50:12.115Z,94933.00
2024-04-30T07:51:11.993Z,94929.00
2024-04-30T07:52:12.063Z,94929.00
2024-04-30T07:53:12.132Z,94923.00
2024-04-30T07:54:12.024Z,94929.00
2024-04-30T07:55:12.627Z,94938.00
2024-04-30T07:56:11.991Z,94932.00
2024-04-30T07:57:11.998Z,94926.00
2024-04-30T07:58:12.079Z,94921.00
2024-04-30T07:59:12.004Z,94926.00
2024-04-30T08:00:12.463Z,94927.00
2024-04-30T08:01:12.126Z,94919.00
2024-04-30T08:02:14.672Z,94921.00
2024-04-30T08:03:12.103Z,94933.00
2024-04-30T08:04:12.180Z,94917.00
2024-04-30T08:05:12.021Z,94916.00
2024-04-30T08:06:18.612Z,94921.00
2024-04-30T08:07:13.060Z,94908.00
2024-04-30T08:08:12.057Z,94913.00
2024-04-30T08:09:12.240Z,94903.00
2024-04-30T08:10:15.110Z,94908.00
2024-04-30T08:11:13.738Z,94904.00
2024-04-30T08:12:12.364Z,94904.00
2024-04-30T08:13:12.036Z,94909.00
2024-04-30T08:14:12.323Z,94906.00
2024-04-30T08:15:12.318Z,94899.00
2024-04-30T08:16:12.116Z,94907.00
2024-04-30T08:17:12.095Z,94902.00
2024-04-30T08:18:12.067Z,94900.00
2024-04-30T08:19:17.599Z,94896.00
2024-04-30T08:20:18.186Z,94890.00
2024-04-30T08:21:13.102Z,94906.00
2024-04-30T08:22:12.090Z,94901.00
2024-04-30T08:23:12.189Z,94885.00
2024-04-30T08:24:12.066Z,94901.00
2024-04-30T08:25:12.083Z,94896.00
2024-04-30T08:26:12.575Z,94892.00
2024-04-30T08:27:12.069Z,94883.00
2024-04-30T08:28:12.221Z,94894.00
2024-04-30T08:29:12.100Z,94890.00
2024-04-30T08:30:12.098Z,94891.00
2024-04-30T08:31:12.643Z,94891.00
2024-04-30T08:32:12.107Z,94882.00
2024-04-30T08:33:16.368Z,94885.00
2024-04-30T08:34:12.791Z,94888.00
2024-04-30T08:35:12.582Z,94879.00
2024-04-30T08:36:12.071Z,94878.00
2024-04-30T08:37:12.100Z,94890.00
2024-04-30T08:38:12.151Z,94889.00
2024-04-30T08:39:12.276Z,94886.00
2024-04-30T08:40:12.861Z,94898.00
2024-04-30T08:41:12.287Z,94914.00
2024-04-30T08:42:12.102Z,94900.00
2024-04-30T08:43:12.192Z,94890.00
2024-04-30T08:44:12.107Z,94866.00
2024-04-30T08:45:13.108Z,94873.00
2024-04-30T08:46:12.451Z,94901.00
2024-04-30T08:47:12.784Z,94890.00
2024-04-30T08:48:12.464Z,94874.00
2024-04-30T08:49:20.386Z,94878.00
2024-04-30T08:50:16.344Z,94887.00
2024-04-30T08:51:12.408Z,94891.00
2024-04-30T08:52:12.135Z,94876.00
2024-04-30T08:53:13.292Z,94874.00
2024-04-30T08:54:12.811Z,94876.00
2024-04-30T08:55:12.129Z,94867.00
2024-04-30T08:56:12.234Z,94867.00
2024-04-30T08:57:12.104Z,94873.00
2024-04-30T08:58:12.283Z,94880.00
2024-04-30T08:59:17.648Z,94868.00
2024-04-30T09:00:12.420Z,94873.00
2024-04-30T09:01:12.701Z,94870.00
2024-04-30T09:02:12.482Z,94863.00
2024-04-30T09:03:12.568Z,94864.00
2024-04-30T09:04:12.744Z,94879.00
2024-04-30T09:05:12.636Z,94890.00
2024-04-30T09:06:12.578Z,94864.00
2024-04-30T09:07:12.667Z,94856.00
2024-04-30T09:08:13.620Z,94866.00
2024-04-30T09:09:15.837Z,94864.00
2024-04-30T09:10:13.129Z,94859.00
2024-04-30T09:11:13.199Z,94867.00
2024-04-30T09:12:12.776Z,94861.00
2024-04-30T09:13:12.735Z,94869.00
2024-04-30T09:14:12.737Z,94856.00
2024-04-30T09:15:12.882Z,94858.00
2024-04-30T09:16:13.114Z,94843.00
2024-04-30T09:17:12.841Z,94866.00
2024-04-30T09:18:12.867Z,94881.00
2024-04-30T09:19:12.743Z,94868.00
2024-04-30T09:20:12.717Z,94868.00
2024-04-30T09:21:17.200Z,94849.00
2024-04-30T09:22:14.344Z,94842.00
2024-04-30T09:23:13.124Z,94858.00
2024-04-30T09:24:13.930Z,94864.00
2024-04-30T09:25:12.831Z,94857.00
2024-04-30T09:26:12.806Z,94856.00
2024-04-30T09:27:13.004Z,94853.00
2024-04-30T09:28:12.814Z,94839.00
2024-04-30T09:29:13.107Z,94850.00
2024-04-30T09:30:12.907Z,94839.00
2024-04-30T09:31:12.931Z,94859.00
2024-04-30T09:32:12.857Z,94845.00
2024-04-30T09:33:12.897Z,94850.00
2024-04-30T09:34:13.343Z,94864.00
2024-04-30T09:35:12.721Z,94846.00
2024-04-30T09:36:14.331Z,94847.00
2024-04-30T09:37:12.810Z,94842.00
2024-04-30T09:38:13.125Z,94832.00
2024-04-30T09:39:13.193Z,94844.00
2024-04-30T09:40:12.895Z,94857.00
2024-04-30T09:41:12.819Z,94831.00
2024-04-30T09:42:12.804Z,94831.00
2024-04-30T09:43:13.104Z,94833.00
2024-04-30T09:44:12.780Z,94863.00
2024-04-30T09:45:12.805Z,94842.00
2024-04-30T09:46:12.807Z,94852.00
2024-04-30T09:47:12.831Z,94843.00
2024-04-30T09:48:13.126Z,94831.00
2024-04-30T09:49:12.823Z,94830.00
2024-04-30T09:50:13.369Z,94837.00
2024-04-30T09:51:23.801Z,94845.00
2024-04-30T09:52:12.819Z,94836.00
2024-04-30T09:53:13.127Z,94843.00
2024-04-30T09:54:12.901Z,94846.00
2024-04-30T09:55:13.504Z,94830.00
2024-04-30T09:56:13.189Z,94831.00
2024-04-30T09:57:13.106Z,94835.00
2024-04-30T09:58:13.162Z,94852.00
2024-04-30T09:59:13.109Z,94836.00
2024-04-30T10:00:13.084Z,94829.00
2024-04-30T10:01:13.332Z,94833.00
2024-04-30T10:02:13.215Z,94825.00
2024-04-30T10:03:13.102Z,94841.00
2024-04-30T10:04:13.448Z,94825.00
2024-04-30T10:05:13.301Z,94829.00
2024-04-30T10:06:13.203Z,94859.00
2024-04-30T10:07:13.341Z,94828.00
2024-04-30T10:08:13.317Z,94843.00
2024-04-30T10:09:13.395Z,94834.00
2024-04-30T10:10:13.473Z,94820.00
2024-04-30T10:11:13.630Z,94824.00
2024-04-30T10:12:13.534Z,94829.00
2024-04-30T10:13:13.626Z,94822.00
2024-04-30T10:14:14.095Z,94814.00
2024-04-30T10:15:13.723Z,94817.00
2024-04-30T10:16:14.211Z,94799.00
2024-04-30T10:17:37.972Z,94821.00
2024-04-30T10:18:13.846Z,94814.00
2024-04-30T10:19:13.901Z,94830.00
2024-04-30T10:20:13.871Z,94798.00
2024-04-30T10:21:14.065Z,94815.00
2024-04-30T10:22:13.860Z,94770.00
2024-04-30T10:23:13.875Z,94807.00
2024-04-30T10:24:13.891Z,94811.00
2024-04-30T10:25:13.929Z,94809.00
2024-04-30T10:26:13.895Z,94805.00
2024-04-30T10:27:13.865Z,94804.00
2024-04-30T10:28:14.011Z,94803.00
2024-04-30T10:29:13.848Z,94796.00
2024-04-30T10:30:13.859Z,94788.00
2024-04-30T10:31:13.892Z,94797.00
2024-04-30T10:32:13.887Z,94794.00
2024-04-30T10:33:13.938Z,94804.00
2024-04-30T10:34:13.951Z,94808.00
2024-04-30T10:35:30.295Z,94779.00
2024-04-30T10:36:13.877Z,94796.00
2024-04-30T10:37:14.102Z,94792.00
2024-04-30T10:38:14.014Z,94790.00
2024-04-30T10:39:14.006Z,94761.00
2024-04-30T10:40:13.864Z,94777.00
2024-04-30T10:41:13.857Z,94787.00
2024-04-30T10:42:13.866Z,94794.00
2024-04-30T10:43:18.477Z,94782.00
2024-04-30T10:44:13.919Z,94769.00
2024-04-30T10:45:13.936Z,94766.00
2024-04-30T10:46:13.965Z,94771.00
2024-04-30T10:47:13.920Z,94784.00
2024-04-30T10:48:13.954Z,94776.00
2024-04-30T10:49:13.980Z,94770.00
2024-04-30T10:50:18.807Z,94780.00
2024-04-30T10:51:14.904Z,94771.00
2024-04-30T10:52:13.937Z,94768.00
2024-04-30T10:53:13.909Z,94757.00
2024-04-30T10:54:14.124Z,94761.00
2024-04-30T10:55:13.957Z,94767.00
2024-04-30T10:56:14.149Z,94774.00
2024-04-30T10:57:13.958Z,94769.00
2024-04-30T10:58:14.102Z,94762.00
2024-04-30T10:59:14.063Z,94762.00
2024-04-30T11:00:14.064Z,94772.00
2024-04-30T11:01:14.173Z,94768.00
2024-04-30T11:02:14.191Z,94759.00
2024-04-30T11:03:19.387Z,94748.00
2024-04-30T11:04:15.475Z,94763.00
2024-04-30T11:05:14.910Z,94770.00
2024-04-30T11:06:14.457Z,94755.00
2024-04-30T11:07:14.847Z,94748.00
2024-04-30T11:08:14.243Z,94757.00
2024-04-30T11:09:14.368Z,94750.00
2024-04-30T11:10:14.658Z,94750.00
2024-04-30T11:11:14.377Z,94745.00
2024-04-30T11:12:14.418Z,94749.00
2024-04-30T11:13:14.986Z,94739.00
2024-04-30T11:14:15.223Z,94737.00
2024-04-30T11:15:14.544Z,94762.00
2024-04-30T11:16:16.490Z,94750.00
2024-04-30T11:17:14.619Z,94749.00
2024-04-30T11:18:15.172Z,94755.00
2024-04-30T11:19:14.757Z,94741.00
2024-04-30T11:20:14.745Z,94750.00
2024-04-30T11:21:14.819Z,94751.00
2024-04-30T11:22:15.030Z,94749.00
2024-04-30T11:23:15.233Z,94739.00
2024-04-30T11:24:15.119Z,94727.00
2024-04-30T11:25:15.159Z,94740.00
2024-04-30T11:26:15.265Z,94745.00
2024-04-30T11:27:15.266Z,94742.00
2024-04-30T11:28:15.094Z,94732.00
2024-04-30T11:29:24.125Z,94730.00
2024-04-30T11:30:15.271Z,94716.00
2024-04-30T11:31:15.282Z,94733.00
2024-04-30T11:32:15.148Z,94738.00
2024-04-30T11:33:15.216Z,94729.00
2024-04-30T11:34:15.163Z,94735.00
2024-04-30T11:35:15.139Z,94733.00
2024-04-30T11:36:15.135Z,94729.00
2024-04-30T11:37:18.055Z,94722.00
2024-04-30T11:38:15.945Z,94732.00
2024-04-30T11:39:15.355Z,94742.00
2024-04-30T11:40:15.225Z,94734.00
2024-04-30T11:41:15.133Z,94728.00
2024-04-30T11:42:21.062Z,94717.00
2024-04-30T11:43:16.444Z,94720.00
2024-04-30T11:44:15.398Z,94723.00
2024-04-30T11:46:15.490Z,94727.00